CYQH

Watson Lake Airport

Watson Lake, , Canada
METAR CYQH 101500Z 08003KT 070V200 15SM OVC080 M13/M14 A2946 RMK AC8 SLP028
Observed Flight Rules
Dec-10 @ 15:00 UTC (56 minutes ago) Visual Flight Rules
Wind Visibility Clouds
80° at 3 knots 15 miles
  • Overcast at 8,000' AGL
Temperatures Readings
Current -13°C / 9°F
Dewpoint -14°C / 7°F
Humidity 92%
Altimeter 29.46" Hg
Pressure 1002.8 hPa
Elevation 690
METAR CYQH 101500Z 08003KT 070V200 15SM OVC080 M13/M14 A2946 RMK AC8 SLP028
Observed Flight Rules
Dec-10 @ 15:00 UTC
(56 minutes ago)
VFR
Wind Visibility
80° at 3 knots 15 miles
Clouds
  • Overcast at 8,000' AGL
Temperature Dewpoint
-13°C / 9°F -14°C / 7°F
Humidity Altimeter Pressure
92% 29.46" Hg 1002.8 hPa